createdAt,value
2023-01-29T00:00:03.832Z,101479.56
2023-01-29T00:05:25.525Z,101472.75
2023-01-29T00:10:20.349Z,101504.09
2023-01-29T00:15:15.098Z,101493.94
2023-01-29T00:20:08.976Z,101509.25
2023-01-29T00:25:02.322Z,101519.50
2023-01-29T00:35:13.979Z,101488.13
2023-01-29T00:40:08.616Z,101528.00
2023-01-29T00:45:00.845Z,101506.00
2023-01-29T00:49:54.443Z,101528.75
2023-01-29T00:54:49.826Z,101511.81
2023-01-29T00:59:43.097Z,101530.56
2023-01-29T01:04:36.333Z,101483.88
2023-01-29T01:09:46.832Z,101514.41
2023-01-29T01:14:43.289Z,101370.38
2023-01-29T01:19:36.892Z,101542.34
2023-01-29T01:24:30.391Z,101519.44
2023-01-29T01:29:24.569Z,101538.06
2023-01-29T01:34:21.839Z,101549.22
2023-01-29T01:39:15.355Z,101461.94
2023-01-29T01:44:08.629Z,101519.50
2023-01-29T01:49:06.526Z,101497.50
2023-01-29T01:54:06.671Z,101535.59
2023-01-29T01:59:00.650Z,101550.16
2023-01-29T02:04:17.566Z,101472.91
2023-01-29T02:09:35.774Z,101540.72
2023-01-29T02:14:30.742Z,101495.00
2023-01-29T02:19:31.486Z,101541.63
2023-01-29T02:24:38.186Z,101551.81
2023-01-29T02:29:39.463Z,101517.19
2023-01-29T02:34:59.679Z,101545.97
2023-01-29T02:40:00.124Z,101551.94
2023-01-29T02:45:00.651Z,101545.97
2023-01-29T02:50:02.209Z,101490.13
2023-01-29T02:55:02.958Z,101559.69
2023-01-29T03:00:01.867Z,101480.03
2023-01-29T03:05:01.259Z,101569.06
2023-01-29T03:09:56.464Z,101535.94
2023-01-29T03:15:09.790Z,101523.22
2023-01-29T03:20:09.254Z,101519.78
2023-01-29T03:25:22.812Z,101563.94
2023-01-29T03:30:37.297Z,101532.66
2023-01-29T03:36:02.576Z,101552.22
2023-01-29T03:41:01.227Z,101574.28
2023-01-29T03:46:04.950Z,101544.59
2023-01-29T03:51:07.680Z,101556.44
2023-01-29T03:56:03.801Z,101543.75
2023-01-29T04:01:02.700Z,101575.13
2023-01-29T04:06:05.632Z,101575.13
2023-01-29T04:11:07.266Z,101561.63
2023-01-29T04:16:05.582Z,101561.75
2023-01-29T04:21:20.555Z,101571.13
2023-01-29T04:26:34.180Z,101547.31
2023-01-29T04:31:36.736Z,101567.81
2023-01-29T04:36:40.242Z,101595.69
2023-01-29T04:41:37.709Z,101600.84
2023-01-29T04:46:37.146Z,101601.66
2023-01-29T04:51:44.386Z,101606.81
2023-01-29T04:56:45.375Z,101599.97
2023-01-29T05:01:40.064Z,101576.28
2023-01-29T05:06:37.084Z,101612.81
2023-01-29T05:11:33.412Z,101576.47
2023-01-29T05:16:29.857Z,101629.94
2023-01-29T05:21:24.286Z,101612.19
2023-01-29T05:26:36.156Z,101568.97
2023-01-29T05:31:29.372Z,101599.53
2023-01-29T05:36:22.591Z,101608.84
2023-01-29T05:41:17.204Z,101648.78
2023-01-29T05:46:11.709Z,101614.06
2023-01-29T05:51:06.312Z,101655.59
2023-01-29T05:56:02.692Z,101668.44
2023-01-29T06:00:55.866Z,101660.75
2023-01-29T06:05:50.451Z,101630.31
2023-01-29T06:10:43.638Z,101681.31
2023-01-29T06:15:36.745Z,101669.47
2023-01-29T06:20:29.905Z,101661.84
2023-01-29T06:25:24.555Z,101655.09
2023-01-29T06:30:18.558Z,101711.06
2023-01-29T06:35:11.925Z,101707.63
2023-01-29T06:40:05.620Z,101718.69
2023-01-29T06:45:00.168Z,101711.03
2023-01-29T06:49:53.354Z,101640.56
2023-01-29T06:54:46.475Z,101716.94
2023-01-29T06:59:39.666Z,101655.75
2023-01-29T07:04:35.558Z,101721.06
2023-01-29T07:09:28.883Z,101722.72
2023-01-29T07:14:22.080Z,101722.78
2023-01-29T07:19:15.566Z,101704.94
2023-01-29T07:24:10.648Z,101645.56
2023-01-29T07:29:05.756Z,101721.03
2023-01-29T07:33:59.092Z,101760.03
2023-01-29T07:38:55.252Z,101726.84
2023-01-29T07:43:50.031Z,101723.25
2023-01-29T07:48:43.479Z,101720.75
2023-01-29T07:53:37.126Z,101769.97
2023-01-29T07:58:32.303Z,101768.09
2023-01-29T08:03:27.056Z,101646.53
2023-01-29T08:08:20.508Z,101760.94
2023-01-29T08:13:13.753Z,101767.72
2023-01-29T08:18:07.443Z,101750.75
2023-01-29T08:23:04.609Z,101784.72
2023-01-29T08:27:59.109Z,101756.72
2023-01-29T08:32:52.326Z,101755.06
2023-01-29T08:37:46.740Z,101678.63
2023-01-29T08:42:42.584Z,101745.44
2023-01-29T08:47:35.885Z,101789.41
2023-01-29T08:52:31.316Z,101802.97
2023-01-29T08:57:24.482Z,101774.06
2023-01-29T09:02:19.105Z,101825.19
2023-01-29T09:07:14.320Z,101780.41
2023-01-29T09:12:08.104Z,101819.72
2023-01-29T09:17:01.378Z,101819.00
2023-01-29T09:21:58.351Z,101809.78
2023-01-29T09:26:51.483Z,101801.34
2023-01-29T09:31:44.754Z,101775.91
2023-01-29T09:36:38.208Z,101746.94
2023-01-29T09:41:45.393Z,101736.63
2023-01-29T09:46:42.209Z,101779.75
2023-01-29T09:51:41.385Z,101709.94
2023-01-29T09:56:36.799Z,101735.34
2023-01-29T10:01:37.135Z,101710.50
2023-01-29T10:06:44.494Z,101738.38
2023-01-29T10:11:52.499Z,101757.78
2023-01-29T10:16:57.470Z,101754.13
2023-01-29T10:22:14.067Z,101721.88
2023-01-29T10:27:16.314Z,101748.72
2023-01-29T10:32:15.843Z,101725.94
2023-01-29T10:37:18.651Z,101753.91
2023-01-29T10:42:24.541Z,101626.03
2023-01-29T10:47:59.829Z,101742.22
2023-01-29T10:53:08.401Z,101736.34
2023-01-29T10:58:12.346Z,101726.91
2023-01-29T11:03:26.916Z,101658.03
2023-01-29T11:08:24.353Z,101706.16
2023-01-29T11:13:19.814Z,101721.22
2023-01-29T11:18:15.971Z,101711.00
2023-01-29T11:23:27.878Z,101715.16
2023-01-29T11:28:38.261Z,101714.47
2023-01-29T11:33:32.041Z,101713.75
2023-01-29T11:38:29.610Z,101714.59
2023-01-29T11:43:30.113Z,101639.97
2023-01-29T11:48:28.319Z,101703.72
2023-01-29T11:53:36.062Z,101713.06
2023-01-29T11:58:32.822Z,101713.88
2023-01-29T12:03:33.670Z,101679.84
2023-01-29T12:08:30.792Z,101686.47
2023-01-29T12:13:28.401Z,101672.72
2023-01-29T12:18:28.000Z,101632.66
2023-01-29T12:23:33.995Z,101681.84
2023-01-29T12:28:38.127Z,101647.16
2023-01-29T12:33:40.813Z,101692.25
2023-01-29T12:38:37.243Z,101666.97
2023-01-29T12:43:43.462Z,101686.56
2023-01-29T12:48:40.180Z,101639.22
2023-01-29T12:53:41.399Z,101648.69
2023-01-29T12:58:39.374Z,101681.88
2023-01-29T13:03:44.300Z,101670.09
2023-01-29T13:08:43.860Z,101704.06
2023-01-29T13:13:45.108Z,101671.88
2023-01-29T13:18:45.150Z,101687.13
2023-01-29T13:23:43.209Z,101718.56
2023-01-29T13:28:38.004Z,101692.13
2023-01-29T13:33:34.605Z,101703.91
2023-01-29T13:38:30.949Z,101673.41
2023-01-29T13:43:25.674Z,101707.34
2023-01-29T13:48:25.607Z,101714.25
2023-01-29T13:53:24.315Z,101604.06
2023-01-29T13:58:19.675Z,101709.19
2023-01-29T14:04:03.415Z,101716.91
2023-01-29T14:08:55.934Z,101694.06
2023-01-29T14:13:52.482Z,101525.38
2023-01-29T14:18:49.651Z,101711.94
2023-01-29T14:23:46.929Z,101600.81
2023-01-29T14:28:41.755Z,101700.91
2023-01-29T14:33:38.024Z,101682.19
2023-01-29T14:38:35.962Z,101688.00
2023-01-29T14:43:29.122Z,101692.38
2023-01-29T14:48:38.963Z,101559.22
2023-01-29T14:53:46.961Z,101646.41
2023-01-29T14:58:46.253Z,101665.06
2023-01-29T15:03:45.880Z,101684.47
2023-01-29T15:08:49.701Z,101652.31
2023-01-29T15:13:50.468Z,101706.66
2023-01-29T15:18:48.996Z,101561.72
2023-01-29T15:23:44.482Z,101705.94
2023-01-29T15:28:38.853Z,101704.16
2023-01-29T15:33:33.482Z,101688.94
2023-01-29T15:38:27.487Z,101600.00
2023-01-29T15:43:24.296Z,101710.13
2023-01-29T15:48:20.871Z,101712.66
2023-01-29T15:53:21.374Z,101646.56
2023-01-29T15:58:18.881Z,101690.63
2023-01-29T16:03:17.178Z,101716.91
2023-01-29T16:08:14.473Z,101725.56
2023-01-29T16:13:15.427Z,101588.09
2023-01-29T16:18:22.712Z,101619.47
2023-01-29T16:23:19.342Z,101679.72
2023-01-29T16:28:14.596Z,101700.09
2023-01-29T16:33:13.226Z,101683.13
2023-01-29T16:38:27.857Z,101724.75
2023-01-29T16:43:49.668Z,101724.72
2023-01-29T16:48:44.730Z,101539.16
2023-01-29T16:53:39.449Z,101706.94
2023-01-29T16:58:35.014Z,101725.56
2023-01-29T17:03:31.680Z,101625.38
2023-01-29T17:08:29.055Z,101579.63
2023-01-29T17:13:32.976Z,101721.22
2023-01-29T17:18:26.702Z,101612.56
2023-01-29T17:23:21.888Z,101612.53
2023-01-29T17:28:19.350Z,101614.22
2023-01-29T17:33:15.617Z,101684.47
2023-01-29T17:38:24.296Z,101583.63
2023-01-29T17:43:19.111Z,101697.09
2023-01-29T17:48:18.183Z,101579.19
2023-01-29T17:53:11.603Z,101678.28
2023-01-29T17:58:05.087Z,101665.59
2023-01-29T18:03:01.702Z,101628.22
2023-01-29T18:07:56.615Z,101541.00
2023-01-29T18:12:53.059Z,101579.09
2023-01-29T18:17:52.206Z,101688.47
2023-01-29T18:23:04.325Z,101498.66
2023-01-29T18:28:01.018Z,101652.03
2023-01-29T18:32:54.796Z,101669.78
2023-01-29T18:37:48.310Z,101662.16
2023-01-29T18:42:43.238Z,101486.69
2023-01-29T18:47:36.612Z,101682.44
2023-01-29T18:52:29.991Z,101607.06
2023-01-29T18:58:26.171Z,101622.28
2023-01-29T19:02:40.191Z,101485.03
2023-01-29T19:07:34.396Z,101662.16
2023-01-29T19:12:27.753Z,101615.56
2023-01-29T19:17:21.083Z,101651.91
2023-01-29T19:22:16.595Z,101702.00
2023-01-29T19:27:10.066Z,101664.69
2023-01-29T19:32:08.973Z,101505.28
2023-01-29T19:37:02.470Z,101596.78
2023-01-29T19:41:57.214Z,101694.25
2023-01-29T19:46:50.659Z,101584.94
2023-01-29T19:51:44.915Z,101692.47
2023-01-29T19:56:38.619Z,101687.31
2023-01-29T20:01:34.166Z,101688.16
2023-01-29T20:06:32.220Z,101700.16
2023-01-29T20:11:26.166Z,101662.69
2023-01-29T20:16:20.779Z,101628.94
2023-01-29T20:21:18.007Z,101584.91
2023-01-29T20:26:15.211Z,101657.78
2023-01-29T20:31:10.915Z,101663.00
2023-01-29T20:36:06.428Z,101708.03
2023-01-29T20:41:07.131Z,101633.47
2023-01-29T20:46:01.473Z,101652.19
2023-01-29T20:50:55.313Z,101703.94
2023-01-29T20:55:48.630Z,101604.06
2023-01-29T21:00:43.720Z,101665.94
2023-01-29T21:05:40.402Z,101711.78
2023-01-29T21:10:36.167Z,101616.78
2023-01-29T21:15:31.802Z,101698.84
2023-01-29T21:20:26.735Z,101624.34
2023-01-29T21:25:21.441Z,101700.84
2023-01-29T21:30:15.385Z,101627.25
2023-01-29T21:35:09.732Z,101691.84
2023-01-29T21:40:04.651Z,101629.28
2023-01-29T21:45:00.553Z,101617.56
2023-01-29T21:49:53.772Z,101710.13
2023-01-29T21:54:48.984Z,101675.47
2023-01-29T21:59:46.869Z,101672.94
2023-01-29T22:04:46.178Z,101656.84
2023-01-29T22:09:39.864Z,101610.28
2023-01-29T22:14:33.185Z,101622.06
2023-01-29T22:19:30.339Z,101487.22
2023-01-29T22:24:25.131Z,101667.00
2023-01-29T22:29:19.705Z,101689.06
2023-01-29T22:34:17.112Z,101600.94
2023-01-29T22:39:11.921Z,101660.31
2023-01-29T22:44:05.397Z,101625.47
2023-01-29T22:48:58.577Z,101585.66
2023-01-29T22:53:53.625Z,101638.31
2023-01-29T22:58:51.663Z,101524.69
2023-01-29T23:03:45.634Z,101499.34
2023-01-29T23:08:38.922Z,101674.22
2023-01-29T23:13:32.095Z,101671.78
2023-01-29T23:18:27.108Z,101675.19
2023-01-29T23:23:20.319Z,101656.44
2023-01-29T23:28:13.775Z,101612.56
2023-01-29T23:33:12.072Z,101652.50
2023-01-29T23:38:06.969Z,101461.53
2023-01-29T23:43:00.109Z,101661.00
2023-01-29T23:47:53.284Z,101549.06
2023-01-29T23:52:46.494Z,101607.69
2023-01-29T23:57:43.703Z,101610.19
